Pagrindinis puslapis
METAR-TAF:

METAR-TAF

Oro uostai :

Nasau, Bahamos

platuma: 25-03N, ilguma: 077-28W, Aukštis: 3 m

Dabartinis oras

Ataskaita buvo paskelbta 21 minutes, ne 13:00 UTC
Vėjas 9 kt iš Rytų
Temperatūra 24°C
Drėgmė 54%
Slėgis 1020 hPa
Matomumas 10 km arba daugiau
Su prošvaistėmis ne aukštis 4000 ft

METAR: MYNN 211300Z 09009KT 9999 BKN040 24/14 A3013

Laikas: 08:21 (13:21 UTC)

Prognozė

Ataskaita buvo paskelbta 3 valandos ir 36 minutes, ne 09:45 UTC
Prognozė galioja nuo 21 metu 12 UTC su 22 metu 12 UTC
Vėjas 13 kt iš Šiaurės Rytų
Matomumas 10 km arba daugiau
Išsisklaidę debesys ne aukštis 2500 ft
Laikinai
nuo 21 metu 13 UTC su 21 metu 19 UTC
Išsisklaidę debesys ne aukštis 2500 ft

TAF: MYNN 210945Z 2112/2212 04013KT 9999 SCT025 TEMPO 2113/2119 SCT025

Orai ataskaitas ir orų prognozės (METAR, TAF).

turimą stotys yra geltonos ir raudonos taškus žemėlapyje.

Perkelti pele per norėdami pamatyti stoties vardą.

Tada spustelėkite, norėdami matyti oro stebėjimo ir prognozės.

Norėdami pakeisti žemėlapį: spustelėkite ant žalios mygtukų su juodo kryžiaus žemyn,; žalią mygtuką su brūkšneliu, jei norite nutolinti; arba žalių rodyklių gretimoms žemėlapius.


METAR-TAF: